createdAt,value
2023-01-21T00:03:08.802Z,0.18
2023-01-21T00:08:10.433Z,0.20
2023-01-21T00:13:16.517Z,0.20
2023-01-21T00:18:18.311Z,0.26
2023-01-21T00:23:20.211Z,0.23
2023-01-21T00:28:22.361Z,0.24
2023-01-21T00:33:24.267Z,0.17
2023-01-21T00:38:26.096Z,0.05
2023-01-21T00:43:28.247Z,-0.06
2023-01-21T00:48:34.597Z,-0.09
2023-01-21T00:53:41.926Z,-0.13
2023-01-21T00:58:43.674Z,-0.14
2023-01-21T01:03:47.112Z,-0.15
2023-01-21T01:08:49.839Z,-0.14
2023-01-21T01:13:52.147Z,-0.17
2023-01-21T01:18:54.173Z,-0.14
2023-01-21T01:23:57.700Z,-0.11
2023-01-21T01:29:00.442Z,-0.14
2023-01-21T01:34:02.219Z,-0.12
2023-01-21T01:39:05.238Z,-0.08
2023-01-21T01:44:45.778Z,-0.06
2023-01-21T01:49:48.369Z,-0.05
2023-01-21T01:54:54.905Z,-0.05
2023-01-21T01:59:57.173Z,-0.01
2023-01-21T02:05:04.583Z,-0.03
2023-01-21T02:10:11.867Z,-0.01
2023-01-21T02:15:13.578Z,-0.02
2023-01-21T02:20:33.856Z,0.02
2023-01-21T02:25:55.144Z,0.04
2023-01-21T02:31:10.581Z,0.06
2023-01-21T02:36:43.444Z,0.04
2023-01-21T02:42:06.503Z,0.04
2023-01-21T02:47:38.216Z,0.07
2023-01-21T02:52:39.938Z,0.02
2023-01-21T02:57:44.670Z,0.01
2023-01-21T03:03:20.271Z,-0.06
2023-01-21T03:08:30.519Z,-0.03
2023-01-21T03:14:00.793Z,-0.03
2023-01-21T03:19:06.730Z,-0.01
2023-01-21T03:24:11.027Z,-0.03
2023-01-21T03:29:17.559Z,-0.07
2023-01-21T03:34:20.285Z,-0.08
2023-01-21T03:39:42.763Z,-0.11
2023-01-21T03:44:46.119Z,-0.12
2023-01-21T03:49:52.325Z,-0.19
2023-01-21T03:54:54.455Z,-0.20
2023-01-21T03:59:56.350Z,-0.20
2023-01-21T04:04:58.421Z,-0.18
2023-01-21T04:10:00.165Z,-0.20
2023-01-21T04:15:05.068Z,-0.21
2023-01-21T04:20:08.219Z,-0.22
2023-01-21T04:25:10.114Z,-0.23
2023-01-21T04:30:12.011Z,-0.22
2023-01-21T04:35:13.826Z,-0.22
2023-01-21T04:40:15.929Z,-0.24
2023-01-21T04:45:17.967Z,-0.25
2023-01-21T04:50:19.782Z,-0.26
2023-01-21T04:55:21.486Z,-0.27
2023-01-21T05:00:23.515Z,-0.29
2023-01-21T05:05:25.308Z,-0.33
2023-01-21T05:10:27.121Z,-0.35
2023-01-21T05:15:29.215Z,-0.40
2023-01-21T05:20:31.035Z,-0.45
2023-01-21T05:25:32.652Z,-0.47
2023-01-21T05:30:34.434Z,-0.46
2023-01-21T05:35:36.150Z,-0.49
2023-01-21T05:40:37.965Z,-0.52
2023-01-21T05:45:39.658Z,-0.52
2023-01-21T05:50:41.260Z,-0.51
2023-01-21T05:55:43.112Z,-0.57
2023-01-21T06:00:56.423Z,-0.58
2023-01-21T06:05:58.192Z,-0.63
2023-01-21T06:11:00.025Z,-0.69
2023-01-21T06:16:01.902Z,-0.65
2023-01-21T06:21:03.741Z,-0.67
2023-01-21T06:26:05.485Z,-0.67
2023-01-21T06:31:07.354Z,-0.67
2023-01-21T06:36:09.444Z,-0.69
2023-01-21T06:41:11.557Z,-0.67
2023-01-21T06:46:13.874Z,-0.68
2023-01-21T06:51:15.681Z,-0.66
2023-01-21T06:56:17.658Z,-0.59
2023-01-21T07:01:19.353Z,-0.55
2023-01-21T07:06:22.465Z,-0.50
2023-01-21T07:11:28.262Z,-0.46
2023-01-21T07:16:30.023Z,-0.45
2023-01-21T07:21:31.868Z,-0.44
2023-01-21T07:26:37.850Z,-0.44
2023-01-21T07:31:39.799Z,-0.44
2023-01-21T07:36:41.669Z,-0.38
2023-01-21T07:41:46.161Z,-0.33
2023-01-21T07:46:47.837Z,-0.38
2023-01-21T07:51:49.454Z,-0.35
2023-01-21T07:56:51.133Z,-0.24
2023-01-21T08:01:53.080Z,-0.14
2023-01-21T08:06:57.155Z,-0.07
2023-01-21T08:11:59.073Z,0.06
2023-01-21T08:17:01.478Z,0.08
2023-01-21T08:22:03.303Z,0.06
2023-01-21T08:27:05.044Z,0.08
2023-01-21T08:32:06.818Z,0.19
2023-01-21T08:37:08.552Z,0.25
2023-01-21T08:42:10.197Z,0.33
2023-01-21T08:47:11.898Z,0.35
2023-01-21T08:52:13.598Z,0.30
2023-01-21T08:57:15.430Z,0.42
2023-01-21T09:02:17.146Z,0.50
2023-01-21T09:07:19.005Z,0.57
2023-01-21T09:12:20.959Z,0.71
2023-01-21T09:17:23.352Z,0.81
2023-01-21T09:22:25.118Z,0.80
2023-01-21T09:27:28.274Z,0.86
2023-01-21T09:32:34.201Z,0.89
2023-01-21T09:37:36.025Z,0.88
2023-01-21T09:42:37.759Z,0.77
2023-01-21T09:47:43.753Z,0.82
2023-01-21T09:52:48.759Z,0.81
2023-01-21T09:58:20.143Z,0.87
2023-01-21T10:03:36.230Z,1.01
2023-01-21T10:08:48.951Z,0.98
2023-01-21T10:13:56.559Z,1.00
2023-01-21T10:19:01.310Z,1.13
2023-01-21T10:24:11.939Z,1.22
2023-01-21T10:29:18.950Z,1.28
2023-01-21T10:34:20.697Z,1.47
2023-01-21T10:39:31.334Z,1.65
2023-01-21T10:44:53.162Z,1.80
2023-01-21T10:50:00.658Z,1.99
2023-01-21T10:55:17.692Z,1.93
2023-01-21T11:00:33.558Z,1.82
2023-01-21T11:05:35.744Z,1.70
2023-01-21T11:10:39.976Z,1.77
2023-01-21T11:15:53.286Z,1.76
2023-01-21T11:20:59.225Z,1.79
2023-01-21T11:26:04.211Z,1.73
2023-01-21T11:31:27.196Z,1.61
2023-01-21T11:36:29.255Z,1.54
2023-01-21T11:41:31.869Z,1.56
2023-01-21T11:46:39.524Z,1.56
2023-01-21T11:51:44.807Z,1.61
2023-01-21T11:56:56.469Z,1.58
2023-01-21T12:02:03.670Z,1.55
2023-01-21T12:07:05.726Z,1.55
2023-01-21T12:12:56.620Z,1.55
2023-01-21T12:18:20.547Z,1.66
2023-01-21T12:23:40.959Z,1.68
2023-01-21T12:28:48.880Z,1.53
2023-01-21T12:33:57.947Z,1.60
2023-01-21T12:39:16.713Z,1.66
2023-01-21T12:44:27.299Z,1.67
2023-01-21T12:49:53.774Z,1.74
2023-01-21T12:55:23.279Z,1.96
2023-01-21T13:00:29.382Z,2.00
2023-01-21T13:05:53.156Z,2.07
2023-01-21T13:11:03.383Z,2.15
2023-01-21T13:16:08.882Z,2.06
2023-01-21T13:21:35.389Z,2.10
2023-01-21T13:26:50.989Z,2.25
2023-01-21T13:32:17.524Z,2.20
2023-01-21T13:37:42.273Z,2.16
2023-01-21T13:42:57.792Z,2.18
2023-01-21T13:48:22.216Z,2.22
2023-01-21T13:53:35.415Z,2.12
2023-01-21T13:58:51.559Z,2.13
2023-01-21T14:04:04.731Z,2.27
2023-01-21T14:09:18.311Z,2.27
2023-01-21T14:14:46.850Z,2.21
2023-01-21T14:20:24.104Z,2.10
2023-01-21T14:25:52.794Z,2.12
2023-01-21T14:31:13.874Z,2.23
2023-01-21T14:36:24.063Z,2.16
2023-01-21T14:42:04.625Z,2.04
2023-01-21T14:47:22.821Z,1.94
2023-01-21T14:52:37.777Z,1.95
2023-01-21T14:57:42.766Z,1.83
2023-01-21T15:02:53.336Z,1.72
2023-01-21T15:08:07.290Z,1.68
2023-01-21T15:13:34.298Z,1.69
2023-01-21T15:18:39.240Z,1.71
2023-01-21T15:23:43.950Z,1.72
2023-01-21T15:28:55.907Z,1.71
2023-01-21T15:34:01.813Z,1.69
2023-01-21T15:39:13.833Z,1.68
2023-01-21T15:44:18.506Z,1.74
2023-01-21T15:49:38.456Z,1.91
2023-01-21T15:54:52.452Z,2.09
2023-01-21T16:00:22.303Z,2.23
2023-01-21T16:05:36.450Z,2.32
2023-01-21T16:11:15.770Z,2.35
2023-01-21T16:16:32.385Z,2.32
2023-01-21T16:21:36.454Z,2.17
2023-01-21T16:26:38.129Z,2.13
2023-01-21T16:31:59.938Z,2.17
2023-01-21T16:37:06.312Z,2.18
2023-01-21T16:42:23.600Z,2.18
2023-01-21T16:47:33.458Z,2.16
2023-01-21T16:52:35.567Z,2.13
2023-01-21T16:57:37.551Z,2.12
2023-01-21T17:02:39.361Z,2.11
2023-01-21T17:07:51.978Z,2.10
2023-01-21T17:12:58.588Z,2.10
2023-01-21T17:18:01.005Z,2.21
2023-01-21T17:23:07.769Z,2.20
2023-01-21T17:28:29.127Z,2.07
2023-01-21T17:33:31.141Z,1.89
2023-01-21T17:38:39.702Z,1.71
2023-01-21T17:43:49.191Z,1.58
2023-01-21T17:48:54.860Z,1.61
2023-01-21T17:54:03.928Z,1.76
2023-01-21T17:59:34.569Z,1.83
2023-01-21T18:04:36.314Z,1.93
2023-01-21T18:09:38.203Z,1.98
2023-01-21T18:14:40.925Z,1.95
2023-01-21T18:19:42.842Z,1.93
2023-01-21T18:24:44.645Z,1.89
2023-01-21T18:29:48.035Z,1.90
2023-01-21T18:34:49.757Z,1.97
2023-01-21T18:39:51.435Z,2.13
2023-01-21T18:44:53.229Z,2.24
2023-01-21T18:49:54.994Z,2.31
2023-01-21T18:54:58.320Z,2.40
2023-01-21T19:00:00.228Z,2.37
2023-01-21T19:05:02.081Z,2.31
2023-01-21T19:10:04.271Z,2.32
2023-01-21T19:15:08.676Z,2.35
2023-01-21T19:20:20.268Z,2.34
2023-01-21T19:25:25.615Z,2.33
2023-01-21T19:30:32.396Z,2.31
2023-01-21T19:35:59.730Z,2.28
2023-01-21T19:41:01.746Z,2.27
2023-01-21T19:46:03.550Z,2.29
2023-01-21T19:51:05.590Z,2.18
2023-01-21T19:56:23.268Z,2.06
2023-01-21T20:01:25.035Z,1.96
2023-01-21T20:06:30.087Z,1.87
2023-01-21T20:11:31.937Z,1.85
2023-01-21T20:16:34.042Z,1.92
2023-01-21T20:21:40.115Z,1.95
2023-01-21T20:26:44.737Z,1.92
2023-01-21T20:31:46.531Z,1.82
2023-01-21T20:36:49.686Z,1.72
2023-01-21T20:41:51.434Z,1.60
2023-01-21T20:46:54.308Z,1.55
2023-01-21T20:51:56.102Z,1.48
2023-01-21T20:56:57.846Z,1.42
2023-01-21T21:01:59.581Z,1.44
2023-01-21T21:07:01.263Z,1.55
2023-01-21T21:12:03.101Z,1.62
2023-01-21T21:17:09.828Z,1.63
2023-01-21T21:22:11.560Z,1.51
2023-01-21T21:27:13.429Z,1.37
2023-01-21T21:32:15.237Z,1.32
2023-01-21T21:37:16.966Z,1.31
2023-01-21T21:42:37.227Z,1.24
2023-01-21T21:47:57.521Z,1.09
2023-01-21T21:52:59.210Z,1.01
2023-01-21T21:58:00.902Z,0.88
2023-01-21T22:03:02.861Z,0.84
2023-01-21T22:08:04.739Z,0.82
2023-01-21T22:13:09.218Z,0.77
2023-01-21T22:18:10.811Z,0.69
2023-01-21T22:23:12.521Z,0.51
2023-01-21T22:28:14.291Z,0.29
2023-01-21T22:33:16.413Z,-0.06
2023-01-21T22:38:19.492Z,-0.25
2023-01-21T22:43:21.300Z,-0.40
2023-01-21T22:48:23.741Z,-0.56
2023-01-21T22:53:26.650Z,-0.86
2023-01-21T22:58:30.437Z,-1.00
2023-01-21T23:03:32.969Z,-1.03
2023-01-21T23:08:37.753Z,-1.07
2023-01-21T23:13:39.827Z,-1.07
2023-01-21T23:18:42.211Z,-1.08
2023-01-21T23:23:44.381Z,-1.20
2023-01-21T23:28:47.221Z,-1.48
2023-01-21T23:33:54.571Z,-1.59
2023-01-21T23:38:56.291Z,-1.67
2023-01-21T23:44:01.860Z,-1.82
2023-01-21T23:49:03.626Z,-2.01
2023-01-21T23:54:05.471Z,-2.00
2023-01-21T23:59:07.739Z,-1.97
